Time;durP1;ratioP1;P1;durP2;ratioP2;P2;SDS_P1;SDS_P2;PMS_P1;PMS_P2;Temp;Humidity;BMP_temperature;BMP_pressure;BME280_temperature;BME280_humidity;BME280_pressure;Samples;Min_cycle;Max_cycle;Signal;HPM_P1;HPM_P2
2022/05/17 00:01:53;;;;;;;30.25;13.38;;;13.50;1.00;;;;;;5023267;28;20387;-23
2022/05/17 00:04:20;;;;;;;28.05;12.27;;;13.60;1.00;;;;;;5013629;28;20452;-22
2022/05/17 00:06:46;;;;;;;27.75;10.38;;;13.60;1.00;;;;;;5013570;28;20524;-23
2022/05/17 00:09:12;;;;;;;29.10;10.90;;;13.50;1.00;;;;;;5015312;28;20030;-23
2022/05/17 00:11:38;;;;;;;28.50;12.07;;;13.50;1.00;;;;;;5024148;28;20072;-23
2022/05/17 00:14:04;;;;;;;29.92;11.60;;;13.50;1.00;;;;;;5017650;28;20465;-22
2022/05/17 00:16:30;;;;;;;41.17;12.65;;;13.50;1.00;;;;;;5013483;28;20441;-23
2022/05/17 00:18:56;;;;;;;35.13;12.65;;;13.60;1.00;;;;;;5012146;28;20046;-22
2022/05/17 00:21:22;;;;;;;30.05;11.30;;;13.30;1.00;;;;;;5012422;28;20046;-22
2022/05/17 00:23:47;;;;;;;30.80;10.50;;;13.60;1.00;;;;;;5015285;28;20453;-22
2022/05/17 00:26:13;;;;;;;33.05;10.88;;;13.70;1.00;;;;;;5013363;28;20060;-24
2022/05/17 00:28:40;;;;;;;31.05;10.93;;;13.50;1.00;;;;;;5013647;28;20046;-24
2022/05/17 00:31:06;;;;;;;29.17;12.88;;;13.60;1.00;;;;;;5013534;28;20443;-25
2022/05/17 00:33:33;;;;;;;33.72;12.40;;;13.40;1.00;;;;;;5012174;28;20149;-25
2022/05/17 00:35:59;;;;;;;24.27;9.57;;;13.50;1.00;;;;;;5012806;28;20057;-25
2022/05/17 00:38:24;;;;;;;25.45;10.85;;;13.50;35.70;;;;;;5013704;28;20551;-25
2022/05/17 00:40:51;;;;;;;26.88;10.68;;;13.50;14.10;;;;;;5024104;28;20046;-25
2022/05/17 00:43:30;;;;;;;29.02;10.05;;;13.40;23.80;;;;;;5015623;28;20042;-24
2022/05/17 00:46:00;;;;;;;36.60;12.57;;;13.50;63.20;;;;;;5013318;28;20117;-24
2022/05/17 00:48:27;;;;;;;20.92;9.75;;;13.40;5.00;;;;;;5012272;28;20050;-24
2022/05/17 00:50:54;;;;;;;39.80;12.15;;;13.40;1.00;;;;;;5014450;28;20057;-25
2022/05/17 00:53:31;;;;;;;28.75;10.90;;;13.30;1.00;;;;;;5012558;28;20247;-25
2022/05/17 00:56:17;;;;;;;23.90;9.43;;;13.20;1.00;;;;;;5015097;28;20073;-25
2022/05/17 00:58:46;;;;;;;38.88;13.00;;;13.10;1.00;;;;;;5012940;28;20096;-25
2022/05/17 01:01:15;;;;;;;27.55;10.45;;;13.00;1.00;;;;;;5012964;28;20071;-24
2022/05/17 01:04:01;;;;;;;30.38;11.52;;;13.10;1.00;;;;;;5015426;28;20046;-25
2022/05/17 01:06:40;;;;;;;29.05;13.20;;;13.00;1.00;;;;;;5021067;28;20053;-25
2022/05/17 01:09:06;;;;;;;31.58;12.25;;;12.90;1.00;;;;;;5014583;28;20046;-25
2022/05/17 01:11:32;;;;;;;32.40;12.07;;;12.90;1.00;;;;;;5012644;28;20053;-25
2022/05/17 01:16:42;;;;;;;38.38;14.45;;;12.80;1.00;;;;;;5013665;28;20108;-24
2022/05/17 01:19:09;;;;;;;31.40;13.07;;;12.70;1.00;;;;;;5012725;28;20045;-25
2022/05/17 01:21:36;;;;;;;33.00;12.85;;;12.70;1.00;;;;;;5013290;28;20500;-24
2022/05/17 01:24:02;;;;;;;28.17;11.90;;;12.70;22.50;;;;;;5012860;28;20129;-24
2022/05/17 01:26:30;;;;;;;29.65;12.23;;;12.70;38.10;;;;;;5011768;28;20128;-25
2022/05/17 01:28:55;;;;;;;35.30;13.48;;;12.70;34.50;;;;;;5012566;28;20077;-25
2022/05/17 01:31:22;;;;;;;31.50;12.77;;;12.70;45.80;;;;;;5018263;28;20501;-25
2022/05/17 01:33:48;;;;;;;34.30;12.85;;;12.70;53.10;;;;;;5014275;28;20474;-25
2022/05/17 01:36:16;;;;;;;41.55;15.68;;;12.70;54.50;;;;;;5016059;28;20050;-24
2022/05/17 01:38:50;;;;;;;43.08;13.90;;;12.70;61.90;;;;;;5030056;28;20072;-25
2022/05/17 01:41:18;;;;;;;38.88;13.93;;;12.70;95.40;;;;;;5019063;28;20054;-24
2022/05/17 01:43:44;;;;;;;30.15;13.75;;;12.70;99.90;;;;;;5016222;28;20045;-24
2022/05/17 01:46:11;;;;;;;38.65;14.48;;;12.70;99.90;;;;;;5017645;28;20471;-24
2022/05/17 01:48:38;;;;;;;30.45;14.52;;;12.80;99.90;;;;;;5017291;28;20420;-24
2022/05/17 01:51:09;;;;;;;32.55;14.13;;;12.70;99.90;;;;;;5015170;28;20169;-29
2022/05/17 01:53:34;;;;;;;29.83;11.80;;;12.80;99.90;;;;;;5016617;28;21067;-25
2022/05/17 01:56:02;;;;;;;32.97;14.27;;;12.70;99.90;;;;;;5017949;28;20125;-25
2022/05/17 01:58:28;;;;;;;36.75;16.13;;;12.80;99.90;;;;;;5016922;28;20049;-26
2022/05/17 02:00:53;;;;;;;35.08;16.63;;;12.70;99.90;;;;;;5019239;28;20486;-25
2022/05/17 02:03:19;;;;;;;32.42;14.95;;;12.70;99.90;;;;;;5035701;28;20538;-24
2022/05/17 02:05:45;;;;;;;35.88;14.05;;;12.60;99.90;;;;;;5024105;28;20062;-25
2022/05/17 02:08:10;;;;;;;40.25;16.13;;;12.60;99.90;;;;;;5030113;28;20087;-24
2022/05/17 02:10:36;;;;;;;34.10;14.80;;;12.50;99.90;;;;;;5035704;28;20384;-24
2022/05/17 02:13:03;;;;;;;31.30;13.35;;;12.60;99.90;;;;;;5035826;28;20049;-24
2022/05/17 02:15:29;;;;;;;32.47;13.73;;;12.50;99.90;;;;;;5034010;28;20061;-28
2022/05/17 02:17:54;;;;;;;38.80;14.38;;;12.50;99.90;;;;;;5015282;28;20486;-25
2022/05/17 02:20:20;;;;;;;32.83;13.75;;;12.50;99.90;;;;;;5014096;28;20092;-24
2022/05/17 02:22:46;;;;;;;42.38;14.23;;;12.50;99.90;;;;;;5015878;28;20449;-24
2022/05/17 02:25:13;;;;;;;32.33;13.55;;;12.70;99.90;;;;;;5015285;28;20069;-24
2022/05/17 02:27:39;;;;;;;38.53;15.15;;;12.50;99.90;;;;;;5016282;28;20050;-24
2022/05/17 02:30:09;;;;;;;24.73;11.50;;;12.50;99.90;;;;;;5018369;28;20056;-25
2022/05/17 02:32:36;;;;;;;32.10;14.02;;;12.50;99.90;;;;;;5016492;28;20046;-24
2022/05/17 02:35:03;;;;;;;31.63;12.63;;;12.30;99.90;;;;;;5016025;28;20100;-24
2022/05/17 02:37:28;;;;;;;32.03;13.88;;;12.30;99.90;;;;;;5015542;28;20065;-24
2022/05/17 02:39:54;;;;;;;36.65;14.13;;;12.30;99.90;;;;;;5013575;28;20042;-25
2022/05/17 02:42:20;;;;;;;35.55;13.95;;;12.30;99.90;;;;;;5015782;28;20409;-24
2022/05/17 02:44:46;;;;;;;37.30;13.90;;;12.30;99.90;;;;;;5013978;28;20129;-25
2022/05/17 02:47:12;;;;;;;40.80;14.75;;;12.40;99.90;;;;;;5014692;28;20050;-24
2022/05/17 02:49:40;;;;;;;32.63;12.52;;;12.30;99.90;;;;;;5015836;28;20046;-25
2022/05/17 02:52:07;;;;;;;31.90;13.98;;;12.30;99.90;;;;;;5015202;28;20157;-24
2022/05/17 02:54:33;;;;;;;36.63;15.20;;;12.20;99.90;;;;;;5015273;28;20046;-24
2022/05/17 02:56:59;;;;;;;38.90;13.60;;;12.30;99.90;;;;;;5013659;28;20050;-25
2022/05/17 02:59:25;;;;;;;34.83;13.20;;;12.20;99.90;;;;;;5013944;28;20048;-25
2022/05/17 03:01:51;;;;;;;34.33;14.32;;;12.10;99.90;;;;;;5014951;28;20962;-25
2022/05/17 03:04:17;;;;;;;30.70;12.77;;;12.20;99.90;;;;;;5014598;28;20049;-24
2022/05/17 03:06:44;;;;;;;32.50;12.75;;;12.20;99.90;;;;;;5014268;28;20057;-25
2022/05/17 03:09:11;;;;;;;33.10;12.32;;;12.30;99.90;;;;;;5013531;28;20070;-25
2022/05/17 03:11:41;;;;;;;34.53;13.05;;;12.30;99.90;;;;;;5022064;28;20448;-24
2022/05/17 03:14:08;;;;;;;24.83;10.70;;;12.40;99.90;;;;;;5013859;28;20049;-24
2022/05/17 03:16:34;;;;;;;30.92;12.65;;;12.40;99.90;;;;;;5014292;28;20050;-24
2022/05/17 03:19:01;;;;;;;27.42;11.27;;;12.50;99.90;;;;;;5015038;28;20053;-24
2022/05/17 03:21:26;;;;;;;26.92;10.75;;;12.50;99.90;;;;;;5015003;28;20050;-24
2022/05/17 03:23:53;;;;;;;34.58;12.50;;;12.50;99.90;;;;;;5020072;28;20061;-24
2022/05/17 03:26:20;;;;;;;29.40;10.25;;;12.40;99.90;;;;;;5023584;28;20053;-24
2022/05/17 03:28:46;;;;;;;28.73;11.40;;;12.30;99.90;;;;;;5034313;28;20044;-24
2022/05/17 03:31:13;;;;;;;30.05;11.02;;;12.30;99.90;;;;;;5026397;28;20049;-24
2022/05/17 03:33:38;;;;;;;27.02;10.55;;;12.30;99.90;;;;;;5025500;28;20377;-24
2022/05/17 03:36:09;;;;;;;19.63;8.13;;;12.30;99.90;;;;;;5019636;28;20046;-24
2022/05/17 03:38:35;;;;;;;25.77;9.77;;;12.30;99.90;;;;;;5014425;28;20504;-24
2022/05/17 03:41:01;;;;;;;29.98;10.13;;;12.50;99.90;;;;;;5013128;28;20567;-25
2022/05/17 03:43:28;;;;;;;24.00;9.30;;;12.40;99.90;;;;;;5018418;28;20037;-24
2022/05/17 03:45:55;;;;;;;25.13;9.25;;;12.60;99.90;;;;;;5013289;28;20057;-24
2022/05/17 03:48:22;;;;;;;23.40;9.43;;;12.70;99.90;;;;;;5030878;28;20144;-24
2022/05/17 03:50:48;;;;;;;28.02;9.35;;;12.60;99.90;;;;;;5017087;28;20049;-24
2022/05/17 03:53:14;;;;;;;26.45;10.57;;;12.90;99.90;;;;;;5014683;28;20133;-24
2022/05/17 03:55:41;;;;;;;24.80;10.00;;;12.90;99.90;;;;;;5014096;28;20081;-24
2022/05/17 03:58:07;;;;;;;31.20;10.45;;;13.00;99.90;;;;;;5012109;28;20076;-24
2022/05/17 04:00:34;;;;;;;26.83;9.68;;;13.00;99.90;;;;;;5018973;28;20056;-24
2022/05/17 04:03:00;;;;;;;36.05;10.48;;;13.10;99.90;;;;;;5022209;28;20123;-24
2022/05/17 04:05:26;;;;;;;23.10;7.65;;;13.10;99.90;;;;;;5014015;28;20049;-24
2022/05/17 04:07:51;;;;;;;26.73;8.02;;;13.20;99.90;;;;;;5013656;28;20050;-24
2022/05/17 04:10:17;;;;;;;22.67;8.35;;;13.40;99.90;;;;;;5007419;28;20056;-25
2022/05/17 04:12:44;;;;;;;17.00;7.82;;;13.50;99.90;;;;;;5016425;28;20046;-24
2022/05/17 04:15:13;;;;;;;23.75;7.82;;;13.60;99.90;;;;;;5014654;28;20054;-24
2022/05/17 04:17:39;;;;;;;25.05;8.30;;;13.60;99.90;;;;;;5021377;28;20053;-24
2022/05/17 04:20:05;;;;;;;18.92;7.10;;;13.60;99.90;;;;;;5021136;28;20135;-24
2022/05/17 04:22:31;;;;;;;25.75;7.78;;;13.80;99.90;;;;;;5013922;28;20081;-24
2022/05/17 04:24:58;;;;;;;25.15;7.43;;;13.80;99.90;;;;;;5014049;28;20143;-24
2022/05/17 04:27:25;;;;;;;23.52;7.78;;;14.10;99.90;;;;;;5012598;28;20180;-24
2022/05/17 04:29:51;;;;;;;20.73;6.75;;;14.00;99.90;;;;;;5013170;28;20045;-24
2022/05/17 04:32:18;;;;;;;27.08;7.30;;;14.10;99.90;;;;;;5013441;28;20045;-25
2022/05/17 04:34:44;;;;;;;22.67;6.65;;;14.20;67.90;;;;;;5020839;28;20045;-24
2022/05/17 04:37:11;;;;;;;18.90;6.88;;;14.30;5.00;;;;;;5013954;28;20061;-24
2022/05/17 04:39:37;;;;;;;21.40;6.80;;;14.40;1.00;;;;;;5013133;28;20049;-24
2022/05/17 04:42:03;;;;;;;22.98;6.85;;;14.50;1.00;;;;;;5012813;28;20056;-25
2022/05/17 04:44:29;;;;;;;26.25;6.88;;;14.60;1.00;;;;;;5013453;28;20510;-25
2022/05/17 04:46:54;;;;;;;23.27;6.78;;;14.60;1.00;;;;;;5014683;28;20121;-24
2022/05/17 04:49:21;;;;;;;22.58;7.45;;;14.70;1.00;;;;;;5013411;28;20042;-24
2022/05/17 04:51:52;;;;;;;19.60;5.35;;;14.80;99.90;;;;;;5013012;28;20132;-24
2022/05/17 04:54:18;;;;;;;28.42;6.95;;;14.70;99.90;;;;;;5013362;28;20041;-25
2022/05/17 04:56:44;;;;;;;20.67;6.60;;;14.80;99.90;;;;;;5018664;28;20042;-25
2022/05/17 04:59:09;;;;;;;21.67;6.20;;;14.90;99.90;;;;;;5012031;28;20129;-24
2022/05/17 05:01:36;;;;;;;17.17;5.57;;;14.80;99.90;;;;;;5012871;28;20107;-25
2022/05/17 05:04:02;;;;;;;22.08;6.05;;;14.70;99.90;;;;;;5012442;28;20073;-24
2022/05/17 05:06:28;;;;;;;23.98;6.85;;;14.70;99.90;;;;;;5014287;28;20100;-25
2022/05/17 05:08:54;;;;;;;24.33;6.68;;;14.70;99.90;;;;;;5014409;28;20502;-24
2022/05/17 05:11:20;;;;;;;16.13;5.80;;;14.70;99.90;;;;;;5016007;28;20558;-25
2022/05/17 05:13:45;;;;;;;21.15;5.70;;;14.60;99.90;;;;;;5020233;28;20046;-24
2022/05/17 05:16:12;;;;;;;22.48;6.28;;;14.60;99.90;;;;;;5016775;28;20069;-25
2022/05/17 05:18:38;;;;;;;20.25;6.30;;;14.70;99.90;;;;;;5021498;28;20064;-24
2022/05/17 05:21:10;;;;;;;23.67;6.35;;;14.70;99.90;;;;;;5027662;28;20046;-24
2022/05/17 05:23:37;;;;;;;31.23;7.25;;;14.70;99.90;;;;;;5016970;28;20054;-24
2022/05/17 05:26:03;;;;;;;20.52;7.40;;;14.80;99.90;;;;;;5017036;28;20049;-24
2022/05/17 05:28:30;;;;;;;18.30;6.10;;;15.00;99.90;;;;;;5018829;28;20046;-24
2022/05/17 05:30:57;;;;;;;24.48;6.68;;;15.00;99.90;;;;;;5016333;28;20057;-24
2022/05/17 05:33:23;;;;;;;22.90;7.40;;;15.00;99.90;;;;;;5016562;28;20464;-24
2022/05/17 05:35:52;;;;;;;23.48;6.70;;;15.10;99.90;;;;;;5015510;28;20057;-24
2022/05/17 05:38:18;;;;;;;19.83;6.63;;;15.50;99.90;;;;;;5017803;28;20046;-25
2022/05/17 05:40:44;;;;;;;19.90;6.47;;;16.00;20.20;;;;;;5016803;28;20120;-24
2022/05/17 05:43:10;;;;;;;23.17;6.43;;;16.50;1.00;;;;;;5017632;28;20057;-25
2022/05/17 05:45:36;;;;;;;20.20;5.85;;;17.00;99.90;;;;;;5021816;28;20064;-25
2022/05/17 05:48:02;;;;;;;19.83;6.32;;;17.40;99.90;;;;;;5020710;28;20041;-25
2022/05/17 05:50:28;;;;;;;22.05;6.40;;;17.50;68.50;;;;;;5023931;28;20053;-25
2022/05/17 05:53:07;;;;;;;22.90;6.55;;;17.70;1.00;;;;;;5026025;28;20416;-25
2022/05/17 05:55:34;;;;;;;22.02;6.00;;;17.90;1.00;;;;;;5016382;28;20050;-25
2022/05/17 05:58:00;;;;;;;18.13;5.30;;;17.90;1.00;;;;;;5015863;28;20065;-24
2022/05/17 06:00:27;;;;;;;22.80;7.10;;;17.60;1.00;;;;;;5017378;28;20045;-25
2022/05/17 06:02:54;;;;;;;23.17;7.30;;;17.20;1.00;;;;;;5015386;28;20042;-24
2022/05/17 06:05:22;;;;;;;15.55;6.20;;;17.00;1.00;;;;;;5014144;28;20049;-25
2022/05/17 06:07:48;;;;;;;16.70;6.80;;;16.90;1.00;;;;;;5017448;28;20470;-24
2022/05/17 06:10:14;;;;;;;20.90;6.50;;;17.00;15.50;;;;;;5018984;28;20048;-24
2022/05/17 06:12:40;;;;;;;20.08;6.47;;;17.40;1.00;;;;;;5031587;28;20497;-26
2022/05/17 06:15:06;;;;;;;16.42;5.82;;;17.60;1.00;;;;;;5015636;28;20037;-24
2022/05/17 06:17:33;;;;;;;18.15;5.80;;;17.90;1.00;;;;;;5015447;28;20046;-24
2022/05/17 06:19:59;;;;;;;19.73;6.45;;;18.00;1.00;;;;;;5014120;28;20146;-25
2022/05/17 06:22:26;;;;;;;16.55;6.32;;;18.20;99.90;;;;;;5017257;28;20038;-24
2022/05/17 06:24:52;;;;;;;17.67;6.25;;;18.10;99.90;;;;;;5015700;28;20490;-24
2022/05/17 06:27:18;;;;;;;20.95;6.07;;;17.90;1.00;;;;;;5015485;28;20062;-24
2022/05/17 06:29:44;;;;;;;15.43;4.95;;;18.00;99.90;;;;;;5014254;28;20486;-25
2022/05/17 06:32:12;;;;;;;18.65;6.28;;;17.90;1.00;;;;;;5028461;28;20110;-24
2022/05/17 06:34:38;;;;;;;19.75;5.50;;;18.00;99.90;;;;;;5022477;28;20487;-24
2022/05/17 06:37:05;;;;;;;13.20;5.35;;;17.90;99.90;;;;;;5015333;28;20056;-24
2022/05/17 06:39:31;;;;;;;17.95;5.38;;;17.80;99.90;;;;;;5031424;28;20102;-24
2022/05/17 06:41:56;;;;;;;16.33;5.88;;;17.80;99.90;;;;;;5028610;28;20088;-24
2022/05/17 06:44:22;;;;;;;21.42;6.00;;;17.70;99.90;;;;;;5019775;28;20045;-24
2022/05/17 06:46:48;;;;;;;13.82;4.63;;;17.50;1.00;;;;;;5012647;28;20052;-25
2022/05/17 06:49:13;;;;;;;17.52;5.00;;;17.60;1.00;;;;;;5020994;28;20040;-24
2022/05/17 06:51:41;;;;;;;15.63;4.05;;;17.80;1.00;;;;;;5033809;28;20061;-26
2022/05/17 06:54:07;;;;;;;13.88;4.43;;;18.00;99.90;;;;;;5033704;28;20052;-24
2022/05/17 06:56:36;;;;;;;18.67;5.63;;;18.30;99.90;;;;;;5024849;28;20041;-24
2022/05/17 06:59:03;;;;;;;20.30;5.40;;;18.40;99.90;;;;;;4998248;28;20392;-25
2022/05/17 07:01:29;;;;;;;18.42;5.63;;;18.60;99.90;;;;;;5026621;28;20059;-26
2022/05/17 07:03:56;;;;;;;18.73;5.32;;;18.60;99.90;;;;;;5020730;28;20124;-24
2022/05/17 07:06:22;;;;;;;15.60;4.07;;;18.50;99.90;;;;;;5026090;28;20049;-24
2022/05/17 07:08:47;;;;;;;14.52;4.82;;;18.40;99.90;;;;;;5032589;28;20046;-24
2022/05/17 07:13:58;;;;;;;20.73;6.03;;;18.80;99.90;;;;;;5020493;28;20045;-24
2022/05/17 07:16:24;;;;;;;17.35;5.32;;;19.10;99.90;;;;;;5033429;28;20107;-24
2022/05/17 07:18:50;;;;;;;15.10;4.68;;;19.10;99.90;;;;;;5034451;28;20457;-24
2022/05/17 07:21:15;;;;;;;20.55;6.20;;;19.00;99.90;;;;;;5034642;28;20084;-24
2022/05/17 07:23:42;;;;;;;16.05;5.63;;;19.00;99.90;;;;;;5033981;28;20485;-25
2022/05/17 07:26:09;;;;;;;14.95;5.05;;;19.10;99.90;;;;;;5014900;28;20104;-24
2022/05/17 07:28:40;;;;;;;21.45;5.60;;;18.80;99.90;;;;;;5014660;28;20049;-24
2022/05/17 07:31:06;;;;;;;15.65;4.93;;;18.90;99.90;;;;;;5014270;28;20096;-24
2022/05/17 07:33:32;;;;;;;20.27;6.18;;;19.00;99.90;;;;;;5014668;28;20038;-24
2022/05/17 07:35:57;;;;;;;18.75;5.35;;;19.30;99.90;;;;;;5026012;28;20051;-24
2022/05/17 07:38:23;;;;;;;15.60;5.50;;;19.40;99.90;;;;;;5034611;28;20107;-24
2022/05/17 07:40:50;;;;;;;19.42;5.97;;;19.70;99.90;;;;;;5034326;28;20575;-24
2022/05/17 07:43:16;;;;;;;15.57;4.95;;;19.80;99.90;;;;;;5034814;28;20056;-24
2022/05/17 07:45:42;;;;;;;15.80;5.43;;;19.90;93.50;;;;;;5027074;28;20046;-24
2022/05/17 07:48:08;;;;;;;17.77;6.00;;;20.10;81.50;;;;;;5014009;28;20112;-25
2022/05/17 07:50:34;;;;;;;12.93;5.65;;;20.20;99.90;;;;;;5013232;28;20050;-24
2022/05/17 07:53:11;;;;;;;14.48;5.28;;;20.20;25.40;;;;;;5014326;28;20049;-24
2022/05/17 07:55:38;;;;;;;21.65;6.43;;;20.10;1.00;;;;;;5014366;28;20096;-24
2022/05/17 07:58:05;;;;;;;25.23;6.35;;;20.20;1.00;;;;;;5014731;28;20089;-24
2022/05/17 08:00:32;;;;;;;18.38;5.72;;;20.50;47.10;;;;;;5029377;28;20116;-24
2022/05/17 08:02:59;;;;;;;11.27;4.72;;;20.10;61.70;;;;;;5033958;28;20091;-24
2022/05/17 08:05:26;;;;;;;17.77;6.20;;;20.30;85.30;;;;;;5034716;28;20099;-24
2022/05/17 08:07:52;;;;;;;16.35;4.90;;;20.70;64.60;;;;;;5033823;28;20473;-25
2022/05/17 08:10:19;;;;;;;15.73;5.63;;;20.30;1.00;;;;;;5031321;28;20053;-24
2022/05/17 08:12:44;;;;;;;24.75;6.90;;;20.30;16.00;;;;;;5031127;28;20050;-25
2022/05/17 08:15:10;;;;;;;14.65;5.43;;;20.50;90.30;;;;;;5021784;28;20392;-25
2022/05/17 08:17:36;;;;;;;17.90;6.13;;;20.60;9.30;;;;;;5035826;28;20128;-25
2022/05/17 08:20:07;;;;;;;19.02;5.50;;;20.80;1.00;;;;;;5032709;28;20107;-24
2022/05/17 08:22:33;;;;;;;18.10;5.50;;;21.10;1.00;;;;;;5033688;28;20049;-24
2022/05/17 08:27:44;;;;;;;14.43;5.53;;;21.00;1.00;;;;;;5032462;28;20057;-25
2022/05/17 08:30:19;;;;;;;16.48;6.15;;;21.10;1.00;;;;;;5029194;28;20386;-25
2022/05/17 08:33:15;;;;;;;16.20;5.78;;;21.20;1.00;;;;;;5023810;28;20085;-25
2022/05/17 08:35:51;;;;;;;9.85;3.95;;;21.50;1.00;;;;;;5014135;28;20046;-24
2022/05/17 08:38:19;;;;;;;16.08;5.35;;;21.20;1.00;;;;;;5014369;28;20042;-24
2022/05/17 08:41:13;;;;;;;19.23;5.40;;;20.90;1.00;;;;;;5032549;28;20440;-24
2022/05/17 08:43:55;;;;;;;14.32;5.55;;;21.40;1.00;;;;;;5036045;28;20060;-25
2022/05/17 08:46:44;;;;;;;14.10;4.47;;;21.50;1.00;;;;;;5027966;28;20045;-25
2022/05/17 08:49:23;;;;;;;11.57;3.58;;;21.60;1.00;;;;;;5034430;28;20050;-25
2022/05/17 08:52:14;;;;;;;16.17;4.72;;;21.70;99.90;;;;;;5031707;28;20064;-25
2022/05/17 08:54:50;;;;;;;11.02;4.18;;;21.90;99.90;;;;;;5024132;28;20053;-25
2022/05/17 08:57:30;;;;;;;12.82;3.75;;;22.00;99.90;;;;;;5037550;28;20562;-25
2022/05/17 08:59:58;;;;;;;10.45;3.58;;;22.20;99.90;;;;;;5037365;28;20088;-25
2022/05/17 09:02:38;;;;;;;14.02;3.88;;;22.30;99.90;;;;;;5037259;28;20053;-24
2022/05/17 09:05:26;;;;;;;11.18;3.58;;;22.00;99.90;;;;;;5033977;28;20037;-25
2022/05/17 09:08:16;;;;;;;11.95;3.92;;;22.40;99.90;;;;;;5016438;28;20050;-25
2022/05/17 09:11:04;;;;;;;14.80;3.45;;;22.30;99.90;;;;;;5016107;28;20048;-25
2022/05/17 09:13:40;;;;;;;10.63;3.53;;;22.70;99.90;;;;;;5017353;28;20053;-25
2022/05/17 09:16:06;;;;;;;15.07;2.95;;;22.90;99.90;;;;;;5017525;28;20096;-26
2022/05/17 09:18:32;;;;;;;8.02;3.22;;;23.20;99.90;;;;;;5016879;28;20124;-25
2022/05/17 09:20:58;;;;;;;9.82;2.90;;;23.00;99.90;;;;;;5016483;28;20057;-26
2022/05/17 09:23:24;;;;;;;9.70;3.33;;;23.30;99.90;;;;;;5018545;28;20065;-26
2022/05/17 09:25:58;;;;;;;8.07;2.85;;;23.30;99.90;;;;;;5031537;28;20065;-26
2022/05/17 09:28:28;;;;;;;12.70;3.45;;;23.30;99.90;;;;;;5034232;28;20056;-25
2022/05/17 09:31:25;;;;;;;8.07;3.03;;;23.40;99.90;;;;;;5017238;28;20437;-26
2022/05/17 09:33:54;;;;;;;8.02;2.42;;;23.40;1.00;;;;;;5009775;28;20100;-26
2022/05/17 09:36:24;;;;;;;8.52;2.90;;;23.50;1.00;;;;;;5016543;28;20502;-25
2022/05/17 09:38:52;;;;;;;11.10;3.65;;;23.40;1.00;;;;;;5036225;28;20103;-26
2022/05/17 09:41:34;;;;;;;12.63;3.55;;;24.00;1.00;;;;;;5036556;28;20080;-26
2022/05/17 09:44:13;;;;;;;13.88;3.85;;;23.90;1.00;;;;;;5036582;28;20512;-25
2022/05/17 09:46:45;;;;;;;12.63;3.95;;;23.90;1.00;;;;;;5036479;28;20404;-25
2022/05/17 09:52:32;;;;;;;14.63;2.40;;;23.70;1.00;;;;;;5016387;28;19921;-24
2022/05/17 09:55:10;;;;;;;12.57;3.20;;;24.00;1.00;;;;;;5016223;28;20046;-24
2022/05/17 09:57:36;;;;;;;14.95;3.88;;;24.00;1.00;;;;;;5016427;28;20517;-24
2022/05/17 10:00:12;;;;;;;13.73;3.80;;;23.40;1.00;;;;;;4999209;28;20060;-24
2022/05/17 10:02:54;;;;;;;8.65;3.72;;;23.00;1.00;;;;;;5029704;28;20167;-24
2022/05/17 10:05:40;;;;;;;11.38;3.15;;;23.40;1.00;;;;;;5036998;28;20045;-24
2022/05/17 10:08:12;;;;;;;13.45;4.00;;;24.20;1.00;;;;;;5036074;28;20064;-24
2022/05/17 10:10:43;;;;;;;13.32;2.90;;;24.00;1.00;;;;;;5033803;28;20125;-25
2022/05/17 10:13:19;;;;;;;8.35;2.53;;;24.40;1.00;;;;;;5028727;28;20155;-25
2022/05/17 10:15:49;;;;;;;10.07;2.50;;;24.10;99.90;;;;;;5029693;28;20041;-25
2022/05/17 10:18:26;;;;;;;11.43;3.15;;;24.10;1.00;;;;;;5035268;28;20057;-25
2022/05/17 10:20:54;;;;;;;8.07;2.63;;;24.40;1.00;;;;;;5036455;28;20393;-25
2022/05/17 10:23:44;;;;;;;9.88;3.15;;;24.50;99.90;;;;;;5034066;28;20540;-25
2022/05/17 10:26:13;;;;;;;11.27;3.28;;;24.80;99.90;;;;;;5015998;28;20112;-25
2022/05/17 10:28:42;;;;;;;11.75;3.40;;;24.90;99.90;;;;;;5015804;28;20053;-25
2022/05/17 10:31:19;;;;;;;11.75;3.20;;;25.40;99.90;;;;;;5015863;28;20129;-25
2022/05/17 10:33:57;;;;;;;8.73;3.10;;;25.30;99.90;;;;;;5014403;28;20061;-27
2022/05/17 10:36:46;;;;;;;8.23;3.00;;;25.50;99.90;;;;;;5034541;28;20193;-26
2022/05/17 10:39:47;;;;;;;11.88;3.03;;;26.00;99.90;;;;;;5034566;28;20053;-25
2022/05/17 10:42:13;;;;;;;11.13;3.17;;;25.80;99.90;;;;;;5036011;28;20045;-25
2022/05/17 10:44:50;;;;;;;9.35;2.75;;;25.90;99.90;;;;;;5033913;28;20168;-25
2022/05/17 10:47:37;;;;;;;13.40;2.80;;;25.30;99.90;;;;;;5035251;28;20060;-25
2022/05/17 10:50:26;;;;;;;12.35;4.18;;;24.50;99.90;;;;;;5035838;28;20049;-25
2022/05/17 10:53:06;;;;;;;9.23;2.95;;;24.60;99.90;;;;;;5034056;28;20120;-25
2022/05/17 10:55:46;;;;;;;8.93;2.60;;;24.90;99.90;;;;;;5031516;28;20480;-26
2022/05/17 10:58:26;;;;;;;10.85;3.00;;;25.40;99.90;;;;;;5026176;28;20049;-25
2022/05/17 11:01:22;;;;;;;14.43;3.00;;;26.00;99.90;;;;;;5018179;28;20076;-29
2022/05/17 11:04:03;;;;;;;9.85;2.60;;;26.20;99.90;;;;;;5028387;28;20095;-25
2022/05/17 11:06:50;;;;;;;7.43;1.73;;;26.60;99.90;;;;;;5026718;28;20084;-26
2022/05/17 11:09:40;;;;;;;5.90;1.67;;;26.30;99.90;;;;;;5026341;28;20045;-25
2022/05/17 11:12:12;;;;;;;11.10;3.38;;;26.20;99.90;;;;;;5020819;28;20432;-26
2022/05/17 11:15:14;;;;;;;6.97;1.85;;;25.80;99.90;;;;;;5026922;28;20042;-26
2022/05/17 11:17:50;;;;;;;8.00;2.08;;;25.90;69.30;;;;;;5006390;28;20049;-26
2022/05/17 11:20:19;;;;;;;8.98;2.42;;;26.20;46.10;;;;;;5014143;28;20449;-26
2022/05/17 11:23:10;;;;;;;9.07;2.63;;;27.00;44.80;;;;;;5028327;28;20049;-26
2022/05/17 11:25:50;;;;;;;15.18;2.88;;;26.70;50.20;;;;;;5034601;28;20447;-26
2022/05/17 11:28:25;;;;;;;8.52;2.88;;;25.70;73.30;;;;;;5033568;28;20492;-26
2022/05/17 11:31:00;;;;;;;9.55;2.80;;;25.20;96.10;;;;;;5034454;28;20126;-26
2022/05/17 11:34:14;;;;;;;12.13;2.60;;;25.10;99.90;;;;;;5026391;28;20046;-26
2022/05/17 11:36:44;;;;;;;10.68;3.08;;;25.50;88.10;;;;;;5013051;28;20526;-27
2022/05/17 11:39:37;;;;;;;8.13;2.30;;;25.70;52.30;;;;;;5016468;28;20099;-26
2022/05/17 11:42:06;;;;;;;12.52;2.50;;;26.10;40.70;;;;;;5015672;28;20056;-26
2022/05/17 11:44:49;;;;;;;9.18;2.70;;;26.50;40.70;;;;;;5013279;28;20054;-26
2022/05/17 11:47:54;;;;;;;10.52;2.92;;;27.00;13.80;;;;;;5014438;28;20561;-27
2022/05/17 11:50:28;;;;;;;5.85;2.03;;;27.80;4.30;;;;;;5016857;28;20042;-26
2022/05/17 11:53:22;;;;;;;6.40;2.17;;;28.30;1.00;;;;;;5019058;28;20536;-26
2022/05/17 11:56:09;;;;;;;11.32;2.28;;;28.30;1.00;;;;;;5015773;28;20049;-26
2022/05/17 11:58:35;;;;;;;9.40;2.03;;;28.50;1.00;;;;;;5014929;28;20482;-26
2022/05/17 12:01:01;;;;;;;6.53;1.60;;;28.40;1.00;;;;;;5014813;28;20045;-27
2022/05/17 12:03:50;;;;;;;6.20;1.85;;;28.30;1.00;;;;;;5013944;28;20054;-26
2022/05/17 12:06:48;;;;;;;14.73;2.13;;;27.80;1.00;;;;;;5022871;28;20374;-26
2022/05/17 12:09:22;;;;;;;6.45;1.95;;;27.10;1.00;;;;;;5031795;28;20535;-26
2022/05/17 12:11:57;;;;;;;8.15;2.03;;;27.00;1.00;;;;;;5034453;28;20398;-26
2022/05/17 12:15:01;;;;;;;8.00;2.10;;;26.90;1.00;;;;;;5033388;28;20085;-26
2022/05/17 12:17:41;;;;;;;7.93;2.88;;;27.10;1.00;;;;;;5015742;28;20129;-26
2022/05/17 12:20:17;;;;;;;7.13;1.70;;;27.60;1.00;;;;;;5021360;28;20033;-26
2022/05/17 12:23:06;;;;;;;4.30;1.77;;;28.00;1.00;;;;;;5028500;28;20042;-27
2022/05/17 12:25:44;;;;;;;7.68;1.52;;;28.60;1.00;;;;;;5021115;28;20060;-26
2022/05/17 12:28:19;;;;;;;14.80;2.17;;;28.50;1.00;;;;;;5020941;28;20053;-27
2022/05/17 12:30:54;;;;;;;4.35;1.42;;;28.00;1.00;;;;;;5022554;28;20061;-26
2022/05/17 12:33:23;;;;;;;8.10;1.92;;;27.50;1.00;;;;;;5013232;28;20061;-26
2022/05/17 12:35:51;;;;;;;27.05;2.92;;;27.60;1.00;;;;;;5013847;28;20052;-26
2022/05/17 12:44:45;;;;;;;7.25;1.90;;;27.60;1.00;;;;;;5028326;28;20060;-27
2022/05/17 12:47:18;;;;;;;5.82;1.50;;;27.50;1.00;;;;;;5016566;28;20046;-26
2022/05/17 12:49:45;;;;;;;5.35;1.83;;;27.60;1.00;;;;;;5013778;28;20065;-26
2022/05/17 12:52:46;;;;;;;8.85;2.05;;;27.20;1.00;;;;;;5012668;28;20176;-27
2022/05/17 12:55:18;;;;;;;8.77;1.73;;;27.50;1.00;;;;;;5022616;28;20093;-26
2022/05/17 12:57:44;;;;;;;8.18;1.75;;;27.60;1.00;;;;;;5023843;28;20485;-26
2022/05/17 13:00:27;;;;;;;9.60;2.20;;;27.80;1.00;;;;;;5014611;28;20057;-27
2022/05/17 13:02:57;;;;;;;;;;;28.20;1.00;;;;;;5013915;28;20050;-27
2022/05/17 13:05:32;;;;;;;36.20;3.38;;;28.70;1.00;;;;;;5013587;28;19928;-26
2022/05/17 13:08:23;;;;;;;6.57;2.00;;;28.70;1.00;;;;;;5013485;28;20073;-26
2022/05/17 13:11:03;;;;;;;7.18;1.75;;;28.70;1.00;;;;;;5025127;28;20053;-27
2022/05/17 13:13:33;;;;;;;5.88;1.40;;;28.10;1.00;;;;;;5018519;28;20099;-27
2022/05/17 13:16:19;;;;;;;15.07;2.55;;;27.90;1.00;;;;;;5018702;28;20050;-26
2022/05/17 13:18:57;;;;;;;9.43;1.75;;;27.50;1.00;;;;;;5017219;28;20083;-26